Date,TemperatureHighF,TemperatureAvgF,TemperatureLowF,DewpointHighF,DewpointAvgF,DewpointLowF,HumidityHigh,HumidityAvg,HumidityLow,PressureMaxIn,PressureMinIn,WindSpeedMaxMPH,WindSpeedAvgMPH,GustSpeedMaxMPH,PrecipitationSumIn
2013-11-1,46.7,40.4,35.3,39.9,36.3,30.6,99,86,65,29.83,29.38,18,4,19,0.01
2013-11-2,47.1,37.6,28.5,34.2,29.4,25.7,91,73,49,30.11,29.83,15,3,16,0.00
2013-11-3,52.0,42.7,29.0,35.0,30.8,26.7,92,64,48,30.12,29.91,37,16,40,0.00
2013-11-4,47.1,43.1,32.9,43.6,36.1,31.0,94,77,58,30.14,29.81,34,14,35,0.15
2013-11-5,43.1,34.2,27.3,32.5,29.7,25.5,96,85,56,30.25,30.05,12,3,15,0.38
2013-11-6,38.0,31.2,27.8,31.1,28.0,24.6,97,88,63,30.17,30.04,15,3,17,0.04
2013-11-7,38.2,28.5,21.6,27.9,24.5,19.6,94,86,56,30.24,30.17,16,4,16,0.00
2013-11-8,40.2,32.5,20.8,36.8,26.6,18.9,94,80,59,30.21,29.59,31,11,33,0.09
2013-11-9,41.2,38.8,36.6,37.9,32.0,25.3,95,77,60,30.17,29.59,30,10,30,0.01
2013-11-10,41.2,36.5,28.2,29.8,27.3,22.8,82,69,57,30.32,30.09,21,6,23,0.00
2013-11-11,35.3,22.1,12.6,29.5,10.0,5.3,81,60,44,30.77,30.12,25,8,29,0.00
2013-11-12,28.1,18.1,8.6,12.6,7.2,4.0,83,64,37,30.82,30.46,20,5,20,0.00
2013-11-13,47.9,33.7,19.9,32.2,22.4,12.3,78,64,44,30.46,29.85,29,13,31,0.00
2013-11-14,47.7,38.2,32.5,34.6,31.5,29.1,92,77,59,29.85,29.74,16,7,16,0.00
2013-11-15,53.3,40.1,29.3,38.2,33.6,28.0,96,79,54,29.85,29.63,24,10,24,0.00
2013-11-16,45.5,43.4,40.1,45.2,40.1,33.0,99,89,74,29.63,29.25,26,10,27,0.12
2013-11-17,44.5,38.8,29.7,44.2,35.2,21.9,100,87,72,29.78,29.28,28,10,31,0.00
2013-11-18,29.5,25.3,16.1,22.2,18.1,13.2,89,74,65,30.30,29.78,31,7,31,0.00
2013-11-19,42.3,30.6,14.6,27.5,20.8,11.7,90,69,52,30.32,29.93,34,14,35,0.00
2013-11-20,43.5,40.1,34.9,32.5,27.4,21.8,91,62,46,30.05,29.89,28,15,29,0.00
2013-11-21,36.0,30.2,22.9,35.5,24.6,11.8,98,80,60,30.55,30.05,23,7,24,0.00
2013-11-22,32.1,21.1,10.5,15.4,8.3,-1.6,86,60,26,30.67,30.45,27,8,29,0.00
2013-11-23,17.3,9.4,2.2,1.0,-1.1,-4.7,74,63,46,30.88,30.67,19,5,23,0.00
2013-11-24,28.2,13.0,1.3,10.6,2.9,-5.1,78,65,45,30.76,30.20,35,12,35,0.00
2013-11-25,33.8,30.7,28.1,20.5,17.0,14.1,58,56,55,30.07,30.02,23,11,26,0.01
2013-11-26,28.1,18.0,7.2,17.3,5.9,0.4,76,59,45,30.43,30.07,30,10,30,0.00
2013-11-27,22.4,14.2,1.5,11.1,5.0,-3.2,83,68,52,30.43,30.11,15,5,18,0.00
2013-11-28,25.8,19.8,6.5,13.4,9.1,2.2,82,63,52,30.55,30.10,18,4,22,0.00
2013-11-29,29.8,19.5,2.4,19.2,10.7,-2.3,86,69,54,30.57,30.15,32,10,37,0.00
2013-11-30,37.5,28.9,21.6,25.0,21.5,18.0,89,74,59,30.19,30.03,22,4,23,0.00